Time;durP1;ratioP1;P1;durP2;ratioP2;P2;SDS_P1;SDS_P2;PMS_P1;PMS_P2;Temp;Humidity;BMP_temperature;BMP_pressure;BME280_temperature;BME280_humidity;BME280_pressure;Samples;Min_cycle;Max_cycle;Signal;HPM_P1;HPM_P2
2023/03/27 00:00:55;;;;;;;27.00;14.93;;;;;;;10.25;40.85;93947.97;5026890;28;20029;-74
2023/03/27 00:03:21;;;;;;;22.17;15.25;;;;;;;10.26;40.89;93935.78;5025780;28;20464;-74
2023/03/27 00:05:46;;;;;;;30.00;17.77;;;;;;;10.27;40.90;93959.28;5026811;28;20030;-73
2023/03/27 00:08:12;;;;;;;28.55;16.60;;;;;;;10.26;40.54;93938.53;5025352;28;20503;-74
2023/03/27 00:10:38;;;;;;;26.30;16.77;;;;;;;10.19;40.94;93947.03;5024798;28;20029;-74
2023/03/27 00:13:04;;;;;;;29.27;17.95;;;;;;;10.23;41.37;93936.69;5025941;28;20029;-74
2023/03/27 00:15:31;;;;;;;28.77;17.15;;;;;;;10.20;41.44;93959.56;5024383;28;20076;-73
2023/03/27 00:17:57;;;;;;;26.83;16.48;;;;;;;10.17;41.54;93944.00;5026523;28;20033;-73
2023/03/27 00:20:24;;;;;;;27.60;15.35;;;;;;;10.16;41.70;93942.47;5024948;28;20104;-74
2023/03/27 00:22:55;;;;;;;18.38;12.32;;;;;;;10.12;41.89;93947.34;5026740;28;20499;-73
2023/03/27 00:25:25;;;;;;;15.65;10.25;;;;;;;10.16;42.01;93947.22;5025035;28;20080;-74
2023/03/27 00:27:52;;;;;;;19.35;11.25;;;;;;;10.17;42.06;93937.75;5026490;28;20032;-74
2023/03/27 00:30:18;;;;;;;18.67;9.98;;;;;;;10.19;42.02;93927.06;5024330;28;20038;-74
2023/03/27 00:32:44;;;;;;;18.27;10.07;;;;;;;10.16;42.06;93939.75;5025270;28;20515;-74
2023/03/27 00:35:09;;;;;;;13.90;8.90;;;;;;;10.16;41.83;93938.97;5025343;28;20427;-73
2023/03/27 00:37:35;;;;;;;15.25;8.80;;;;;;;10.11;41.69;93921.13;5024793;28;20025;-73
2023/03/27 00:40:01;;;;;;;16.98;8.88;;;;;;;10.13;41.63;93921.41;5026346;28;20035;-73
2023/03/27 00:42:27;;;;;;;13.13;7.53;;;;;;;10.12;41.66;93936.38;5024727;28;20026;-73
2023/03/27 00:44:53;;;;;;;13.70;8.68;;;;;;;10.06;41.80;93903.25;5026121;28;20021;-73
2023/03/27 00:47:27;;;;;;;15.30;8.05;;;;;;;10.11;41.77;93912.88;5025235;28;20105;-73
2023/03/27 00:49:53;;;;;;;14.20;7.78;;;;;;;10.13;42.04;93906.91;5025055;28;20049;-74
2023/03/27 00:52:20;;;;;;;12.10;7.30;;;;;;;10.10;41.91;93892.91;5025132;28;20025;-74
2023/03/27 00:54:46;;;;;;;15.65;8.30;;;;;;;10.12;42.21;93908.91;5024825;28;20029;-73
2023/03/27 00:57:15;;;;;;;14.18;8.15;;;;;;;10.02;41.45;93894.41;5057667;28;20076;-74
2023/03/27 00:59:42;;;;;;;13.00;8.18;;;;;;;10.02;41.59;93904.63;5056320;28;20029;-74
2023/03/27 01:02:08;;;;;;;17.45;10.15;;;;;;;10.02;41.85;93899.16;5057666;28;20045;-73
2023/03/27 01:04:35;;;;;;;21.55;11.63;;;;;;;10.02;41.86;93894.41;5024861;28;20112;-74
2023/03/27 01:07:02;;;;;;;23.58;13.07;;;;;;;10.03;41.83;93892.44;5025238;28;20021;-75
2023/03/27 01:09:28;;;;;;;18.38;11.32;;;;;;;10.04;41.94;93880.25;5023664;28;20032;-74
2023/03/27 01:12:18;;;;;;;15.10;10.32;;;;;;;10.05;42.27;93881.78;5024719;28;20026;-74
2023/03/27 01:14:47;;;;;;;15.45;8.60;;;;;;;10.06;42.00;93877.78;5024304;28;20029;-74
2023/03/27 01:17:22;;;;;;;11.80;7.72;;;;;;;10.02;41.99;93874.44;5024703;28;20459;-74
2023/03/27 01:20:13;;;;;;;14.60;8.38;;;;;;;10.00;41.91;93865.91;5057297;28;20029;-74
2023/03/27 01:23:02;;;;;;;14.60;7.72;;;;;;;9.97;41.90;93856.59;5057115;28;20029;-73
2023/03/27 01:25:53;;;;;;;11.40;7.22;;;;;;;9.96;42.07;93863.31;5023997;28;20021;-74
2023/03/27 01:28:41;;;;;;;13.75;8.02;;;;;;;9.93;42.28;93866.97;5056760;28;20504;-74
2023/03/27 01:31:54;;;;;;;13.35;7.63;;;;;;;9.91;42.00;93858.41;5056786;28;20060;-74
2023/03/27 01:34:30;;;;;;;13.68;7.28;;;;;;;9.91;42.28;93874.13;5020482;28;20065;-74
2023/03/27 01:37:17;;;;;;;23.70;8.70;;;;;;;9.91;42.18;93863.16;5025113;28;20076;-74
2023/03/27 01:40:07;;;;;;;11.23;7.05;;;;;;;9.87;42.12;93854.31;5024797;28;20063;-74
2023/03/27 01:42:49;;;;;;;13.68;6.88;;;;;;;9.85;42.14;93852.03;5023437;28;20048;-74
2023/03/27 01:45:32;;;;;;;12.98;6.53;;;;;;;9.83;41.94;93847.00;5025445;28;20033;-74
2023/03/27 01:48:22;;;;;;;15.20;7.13;;;;;;;9.83;42.10;93836.00;5023347;28;20029;-74
2023/03/27 01:50:52;;;;;;;15.45;7.85;;;;;;;9.78;41.98;93839.38;5023898;28;20149;-74
2023/03/27 01:53:53;;;;;;;12.63;7.50;;;;;;;9.75;41.69;93832.06;5056560;28;20072;-73
2023/03/27 01:56:31;;;;;;;12.15;7.22;;;;;;;9.75;41.73;93828.56;4984904;28;20046;-74
2023/03/27 01:59:03;;;;;;;10.68;6.93;;;;;;;9.74;42.15;93830.50;4986353;28;20030;-74
2023/03/27 02:01:37;;;;;;;14.05;7.90;;;;;;;9.72;41.91;93826.72;4986191;28;20057;-74
2023/03/27 02:04:04;;;;;;;13.02;6.95;;;;;;;9.73;41.93;93825.50;4985284;28;20117;-73
2023/03/27 02:06:35;;;;;;;13.02;6.85;;;;;;;9.72;41.90;93826.72;5002738;28;20532;-74
2023/03/27 02:09:09;;;;;;;12.00;7.20;;;;;;;9.71;42.23;93831.44;4985035;28;20107;-74
2023/03/27 02:11:35;;;;;;;;;;;;;;;9.71;42.19;93833.44;4986443;28;20037;-74
2023/03/27 02:14:07;;;;;;;9.75;6.78;;;;;;;9.66;42.22;93823.81;4985901;28;19980;-74
2023/03/27 02:16:35;;;;;;;10.98;6.28;;;;;;;9.65;42.32;93825.06;5001866;28;20030;-74
2023/03/27 02:19:03;;;;;;;10.52;6.28;;;;;;;9.66;42.54;93812.09;4986335;28;20100;-74
2023/03/27 02:21:32;;;;;;;14.15;6.50;;;;;;;9.64;42.76;93809.81;5001197;28;20109;-74
2023/03/27 02:24:00;;;;;;;30.17;23.75;;;;;;;9.62;42.37;93795.75;4986876;28;20466;-73
2023/03/27 02:26:27;;;;;;;42.35;27.10;;;;;;;9.58;42.10;93792.44;5001476;28;20084;-73
2023/03/27 02:29:04;;;;;;;35.53;24.58;;;;;;;9.56;41.85;93797.59;5002024;28;20548;-74
2023/03/27 02:31:54;;;;;;;29.40;22.50;;;;;;;9.54;41.79;93783.59;4985462;28;20037;-74
2023/03/27 02:34:22;;;;;;;27.90;21.30;;;;;;;9.50;41.33;93772.00;5023449;28;20096;-73
2023/03/27 02:36:57;;;;;;;30.42;20.55;;;;;;;9.50;41.82;93766.50;5025159;28;20086;-73
2023/03/27 02:39:38;;;;;;;30.00;21.38;;;;;;;9.43;41.85;93769.56;5023411;28;20602;-74
2023/03/27 02:42:11;;;;;;;32.88;20.65;;;;;;;9.15;42.82;93753.09;5024027;28;20067;-74
2023/03/27 02:44:50;;;;;;;25.05;16.45;;;;;;;8.94;43.46;93738.28;5022694;28;20017;-74
2023/03/27 02:48:03;;;;;;;24.63;16.13;;;;;;;8.98;44.14;93744.41;5023357;28;20057;-74
2023/03/27 02:50:40;;;;;;;20.10;12.27;;;;;;;8.99;43.13;93734.94;5023294;28;20045;-74
2023/03/27 02:53:08;;;;;;;18.08;11.35;;;;;;;9.00;43.55;93731.00;5022435;28;20029;-74
2023/03/27 02:55:37;;;;;;;22.30;11.18;;;;;;;8.97;43.43;93709.22;5021993;28;20033;-73
2023/03/27 02:58:06;;;;;;;18.30;11.35;;;;;;;8.94;43.71;93724.59;5025375;28;20026;-73
2023/03/27 03:00:38;;;;;;;19.67;11.40;;;;;;;8.87;43.58;93721.41;5026740;28;20029;-73
2023/03/27 03:03:12;;;;;;;14.55;8.93;;;;;;;8.84;43.54;93719.56;5028346;28;20033;-75
2023/03/27 03:05:38;;;;;;;17.25;9.13;;;;;;;8.85;43.67;93726.56;5058945;28;20025;-74
2023/03/27 03:08:04;;;;;;;12.15;8.30;;;;;;;8.86;43.50;93717.13;5027332;28;20025;-73
2023/03/27 03:10:30;;;;;;;14.10;8.50;;;;;;;8.88;43.50;93711.94;5059488;28;20083;-74
2023/03/27 03:12:55;;;;;;;15.10;7.32;;;;;;;8.88;43.22;93695.50;5026848;28;20018;-73
2023/03/27 03:15:21;;;;;;;18.08;8.32;;;;;;;8.88;43.92;93690.03;5027949;28;20549;-73
2023/03/27 03:17:46;;;;;;;16.27;7.88;;;;;;;8.88;43.65;93681.81;5026490;28;20032;-73
2023/03/27 03:20:12;;;;;;;10.52;7.28;;;;;;;8.90;43.53;93690.34;5028116;28;20166;-73
2023/03/27 03:22:38;;;;;;;13.52;7.78;;;;;;;8.89;42.75;93692.31;5025413;28;20022;-74
2023/03/27 03:25:05;;;;;;;13.13;7.63;;;;;;;8.90;42.86;93688.38;5027350;28;20052;-74
2023/03/27 03:27:32;;;;;;;12.52;7.25;;;;;;;8.89;42.45;93675.09;5059075;28;20033;-74
2023/03/27 03:29:59;;;;;;;12.25;7.78;;;;;;;8.94;42.95;93683.47;5057760;28;20029;-74
2023/03/27 03:32:25;;;;;;;13.05;7.07;;;;;;;8.96;42.30;93664.63;5027433;28;20032;-74
2023/03/27 03:34:51;;;;;;;17.60;9.38;;;;;;;8.99;42.76;93673.88;5026149;28;20467;-74
2023/03/27 03:37:17;;;;;;;13.65;7.15;;;;;;;9.03;41.92;93669.03;5059282;28;20458;-74
2023/03/27 03:39:42;;;;;;;9.40;6.10;;;;;;;8.92;42.19;93690.66;5026192;28;20032;-75
2023/03/27 03:42:08;;;;;;;8.43;5.22;;;;;;;8.93;41.97;93662.78;5027075;28;20018;-74
2023/03/27 03:44:33;;;;;;;13.35;6.68;;;;;;;9.02;41.96;93687.44;5026365;28;20037;-74
2023/03/27 03:46:59;;;;;;;8.98;5.93;;;;;;;8.94;41.88;93682.72;5026404;28;20052;-74
2023/03/27 03:49:24;;;;;;;9.60;5.90;;;;;;;9.04;41.37;93676.78;5027004;28;20485;-74
2023/03/27 03:51:50;;;;;;;10.82;6.85;;;;;;;9.12;41.50;93671.00;5025828;28;20021;-75
2023/03/27 03:54:15;;;;;;;13.25;7.70;;;;;;;9.14;42.19;93688.53;5058925;28;20435;-74
2023/03/27 03:56:40;;;;;;;13.48;7.57;;;;;;;9.15;42.07;93679.06;5025474;28;20433;-74
2023/03/27 03:59:07;;;;;;;12.27;7.10;;;;;;;9.19;41.94;93679.69;5026993;28;20030;-74
2023/03/27 04:01:33;;;;;;;11.32;6.82;;;;;;;9.22;41.64;93667.78;5025550;28;20033;-74
2023/03/27 04:03:59;;;;;;;13.32;7.63;;;;;;;9.24;42.01;93673.59;5058233;28;20090;-74
2023/03/27 04:06:24;;;;;;;13.25;7.68;;;;;;;9.20;42.12;93670.22;5058353;28;20446;-75
2023/03/27 04:08:51;;;;;;;14.52;7.80;;;;;;;9.23;42.48;93669.34;5056966;28;20542;-75
2023/03/27 04:11:16;;;;;;;19.05;7.55;;;;;;;9.28;42.15;93681.66;5025947;28;20040;-75
2023/03/27 04:13:42;;;;;;;11.38;6.63;;;;;;;9.29;42.06;93670.25;5024209;28;20599;-75
2023/03/27 04:16:07;;;;;;;14.18;7.22;;;;;;;9.31;41.73;93667.78;5026602;28;20017;-74
2023/03/27 04:18:33;;;;;;;11.60;7.38;;;;;;;9.34;42.08;93654.38;5025427;28;20029;-74
2023/03/27 04:20:59;;;;;;;19.30;9.13;;;;;;;9.39;42.33;93665.47;5026444;28;20036;-74
2023/03/27 04:23:30;;;;;;;15.27;8.48;;;;;;;9.41;42.05;93656.81;5025718;28;20029;-74
2023/03/27 04:25:59;;;;;;;19.30;8.00;;;;;;;9.43;42.13;93670.81;5025833;28;20420;-74
2023/03/27 04:28:33;;;;;;;18.42;8.23;;;;;;;9.48;42.13;93678.44;5026197;28;20049;-74
2023/03/27 04:31:05;;;;;;;14.82;8.95;;;;;;;9.51;42.29;93672.00;5055897;28;20033;-73
2023/03/27 04:33:34;;;;;;;14.75;8.57;;;;;;;9.49;42.19;93655.25;5026698;28;20026;-74
2023/03/27 04:36:00;;;;;;;19.27;9.43;;;;;;;9.49;42.28;93636.06;5023735;28;20052;-75
2023/03/27 04:38:27;;;;;;;19.08;10.15;;;;;;;9.49;42.43;93636.81;5026559;28;20075;-75
2023/03/27 04:40:53;;;;;;;21.33;10.23;;;;;;;9.53;42.56;93650.38;5024455;28;20029;-75
2023/03/27 04:43:19;;;;;;;17.75;10.90;;;;;;;9.60;42.10;93654.78;5025314;28;20101;-73
2023/03/27 04:45:46;;;;;;;18.38;9.90;;;;;;;9.53;42.12;93664.84;5025901;28;20467;-73
2023/03/27 04:48:12;;;;;;;16.35;8.70;;;;;;;9.30;42.16;93652.56;5024759;28;20029;-73
2023/03/27 04:50:39;;;;;;;15.60;8.25;;;;;;;9.43;41.55;93657.09;5024676;28;20030;-74
2023/03/27 04:53:04;;;;;;;16.17;9.35;;;;;;;9.49;41.94;93658.75;5022908;28;20101;-73
2023/03/27 04:55:36;;;;;;;21.70;9.70;;;;;;;9.57;41.71;93646.22;5058028;28;20116;-73
2023/03/27 04:58:03;;;;;;;18.50;10.90;;;;;;;9.68;41.69;93636.75;5024801;28;20060;-74
2023/03/27 05:00:29;;;;;;;23.20;11.38;;;;;;;9.73;41.72;93642.38;5024276;28;20036;-74
2023/03/27 05:02:54;;;;;;;15.43;9.23;;;;;;;9.78;41.48;93635.50;5025396;28;20108;-74
2023/03/27 05:05:20;;;;;;;17.52;10.38;;;;;;;9.82;41.13;93634.13;5024554;28;20018;-74
2023/03/27 05:07:47;;;;;;;14.40;9.60;;;;;;;9.91;40.92;93636.06;5057350;28;20033;-74
2023/03/27 05:10:14;;;;;;;18.60;10.02;;;;;;;9.93;40.94;93644.63;5055815;28;20041;-74
2023/03/27 05:12:44;;;;;;;15.30;9.07;;;;;;;9.94;40.76;93606.94;5025916;28;20025;-74
2023/03/27 05:15:11;;;;;;;18.42;11.23;;;;;;;9.90;40.82;93651.03;5024078;28;20022;-74
2023/03/27 05:17:39;;;;;;;17.55;9.35;;;;;;;9.70;40.84;93593.16;5025148;28;20033;-74
2023/03/27 05:20:11;;;;;;;13.95;9.05;;;;;;;9.85;40.60;93583.78;5025076;28;20029;-73
2023/03/27 05:22:37;;;;;;;21.63;10.32;;;;;;;9.90;40.59;93578.88;5055328;28;20404;-73
2023/03/27 05:25:03;;;;;;;17.05;8.00;;;;;;;9.62;40.74;93602.94;5025326;28;20021;-74
2023/03/27 05:27:28;;;;;;;14.38;8.40;;;;;;;9.73;40.54;93527.13;5023973;28;20538;-74
2023/03/27 05:29:54;;;;;;;14.95;7.68;;;;;;;9.85;40.61;93563.81;5025588;28;20033;-74
2023/03/27 05:32:20;;;;;;;14.10;7.35;;;;;;;9.90;39.18;93574.16;5023857;28;20226;-74
2023/03/27 05:34:49;;;;;;;14.80;7.05;;;;;;;9.96;39.06;93566.06;5025295;28;20025;-74
2023/03/27 05:37:15;;;;;;;14.65;7.10;;;;;;;10.00;38.85;93528.97;5024370;28;20532;-74
2023/03/27 05:39:40;;;;;;;14.88;7.55;;;;;;;10.15;38.83;93518.06;5023050;28;20649;-74
2023/03/27 05:42:06;;;;;;;14.15;8.55;;;;;;;10.28;39.02;93501.34;5024988;28;20029;-74
2023/03/27 05:44:31;;;;;;;14.57;9.13;;;;;;;10.30;38.13;93496.13;5023824;28;20108;-74
2023/03/27 05:46:58;;;;;;;16.90;10.43;;;;;;;10.32;38.32;93494.47;5025442;28;20030;-75
2023/03/27 05:49:23;;;;;;;21.23;12.00;;;;;;;10.47;38.55;93478.00;5022586;28;20091;-74
2023/03/27 05:51:49;;;;;;;21.95;13.07;;;;;;;10.57;38.15;93467.69;5024999;28;20496;-75
2023/03/27 05:54:15;;;;;;;23.60;12.52;;;;;;;10.74;37.96;93462.50;5023704;28;20105;-75
2023/03/27 05:56:40;;;;;;;24.30;12.88;;;;;;;10.86;37.76;93453.94;5024449;28;20572;-76
2023/03/27 05:59:06;;;;;;;25.77;13.05;;;;;;;10.97;37.86;93444.38;5023414;28;20540;-74
2023/03/27 06:01:33;;;;;;;20.15;13.20;;;;;;;11.07;37.74;93432.81;5023604;28;20499;-74
2023/03/27 06:03:59;;;;;;;21.35;11.30;;;;;;;11.17;37.52;93433.44;5025057;28;20117;-75
2023/03/27 06:06:25;;;;;;;26.85;13.43;;;;;;;11.29;37.33;93415.09;5023209;28;20101;-74
2023/03/27 06:08:50;;;;;;;25.80;13.93;;;;;;;11.36;36.87;93409.22;5023551;28;20026;-74
2023/03/27 06:11:16;;;;;;;30.83;15.32;;;;;;;11.35;36.76;93404.94;5023628;28;20041;-73
2023/03/27 06:13:42;;;;;;;28.35;14.10;;;;;;;11.50;36.73;93421.41;5025037;28;20435;-73
2023/03/27 06:16:07;;;;;;;27.42;13.95;;;;;;;11.57;36.80;93415.50;5024365;28;20028;-73
2023/03/27 06:18:33;;;;;;;24.00;11.27;;;;;;;11.55;36.80;93427.00;5023865;28;20056;-73
2023/03/27 06:20:59;;;;;;;24.02;11.38;;;;;;;11.68;36.66;93426.66;5024841;28;20025;-73
2023/03/27 06:23:24;;;;;;;21.33;10.68;;;;;;;11.72;36.90;93416.22;5023421;28;20100;-74
2023/03/27 06:25:51;;;;;;;20.23;9.30;;;;;;;11.83;36.95;93401.88;5023774;28;20156;-73
2023/03/27 06:28:18;;;;;;;19.77;9.77;;;;;;;11.95;36.97;93409.03;5023558;28;20025;-73
2023/03/27 06:30:45;;;;;;;16.30;8.52;;;;;;;11.96;37.02;93429.81;5024764;28;20041;-73
2023/03/27 06:33:11;;;;;;;15.02;6.90;;;;;;;11.94;37.45;93427.53;5056985;28;20109;-74
2023/03/27 06:35:38;;;;;;;15.10;6.95;;;;;;;12.09;37.71;93429.47;5028224;28;20030;-75
2023/03/27 06:38:05;;;;;;;14.52;6.10;;;;;;;12.21;37.48;93406.31;5060196;28;20026;-74
2023/03/27 06:40:34;;;;;;;13.65;5.22;;;;;;;12.29;37.60;93395.63;5027345;28;20518;-73
2023/03/27 06:42:59;;;;;;;10.23;4.78;;;;;;;12.38;37.46;93417.50;5028657;28;20495;-74
2023/03/27 06:45:39;;;;;;;10.23;4.63;;;;;;;12.49;37.05;93428.66;5026928;28;20064;-72
2023/03/27 06:48:05;;;;;;;8.02;4.45;;;;;;;12.63;36.95;93429.81;5028565;28;20033;-73
2023/03/27 06:50:31;;;;;;;10.88;4.15;;;;;;;12.73;36.74;93445.72;5025766;28;20112;-73
2023/03/27 06:52:58;;;;;;;9.38;4.05;;;;;;;12.90;36.51;93434.06;5026123;28;20032;-74
2023/03/27 06:55:26;;;;;;;12.13;3.65;;;;;;;12.98;35.95;93413.81;5009945;28;20416;-73
2023/03/27 06:57:53;;;;;;;7.10;2.95;;;;;;;13.00;36.18;93422.38;5027322;28;20033;-74
2023/03/27 07:00:24;;;;;;;6.10;2.72;;;;;;;13.08;36.04;93457.81;5028212;28;20156;-73
2023/03/27 07:03:03;;;;;;;6.07;2.45;;;;;;;13.16;35.47;93454.09;5026550;28;20021;-73
2023/03/27 07:05:32;;;;;;;5.63;3.17;;;;;;;13.33;35.58;93450.75;5027747;28;20092;-73
2023/03/27 07:07:58;;;;;;;6.68;3.28;;;;;;;13.37;35.67;93435.47;5058621;28;20018;-73
2023/03/27 07:10:24;;;;;;;6.10;3.10;;;;;;;13.48;35.68;93432.03;5058979;28;20037;-73
2023/03/27 07:12:51;;;;;;;10.35;3.20;;;;;;;13.62;35.74;93428.34;5027732;28;20026;-73
2023/03/27 07:15:17;;;;;;;8.32;3.50;;;;;;;13.77;35.75;93442.75;5027277;28;20096;-74
2023/03/27 07:17:43;;;;;;;8.05;2.60;;;;;;;13.77;36.10;93437.25;5026192;28;20025;-74
2023/03/27 07:20:11;;;;;;;12.23;4.32;;;;;;;13.96;36.29;93429.31;5026567;28;20032;-73
2023/03/27 07:22:36;;;;;;;7.00;4.05;;;;;;;14.07;36.04;93414.78;5027573;28;20026;-73
2023/03/27 07:25:03;;;;;;;4.13;2.53;;;;;;;14.19;35.34;93418.34;5058474;28;20025;-74
2023/03/27 07:27:28;;;;;;;5.78;2.88;;;;;;;14.33;35.07;93420.13;5027222;28;20047;-74
2023/03/27 07:29:55;;;;;;;7.80;3.25;;;;;;;14.48;34.73;93419.97;5026809;28;20112;-74
2023/03/27 07:32:20;;;;;;;10.82;3.42;;;;;;;14.64;34.67;93422.03;5026285;28;20100;-74
2023/03/27 07:34:45;;;;;;;5.15;2.70;;;;;;;14.62;34.50;93402.41;5027156;28;20168;-73
2023/03/27 07:37:11;;;;;;;6.13;3.05;;;;;;;14.73;34.31;93418.25;5057777;28;20032;-73
2023/03/27 07:39:36;;;;;;;5.38;3.13;;;;;;;14.81;34.08;93419.28;5027507;28;20033;-74
2023/03/27 07:42:02;;;;;;;8.38;3.58;;;;;;;14.91;33.87;93428.09;5026130;28;20028;-74
2023/03/27 07:44:27;;;;;;;4.53;2.38;;;;;;;14.94;34.11;93418.81;5025549;28;20410;-75
2023/03/27 07:46:53;;;;;;;6.65;3.90;;;;;;;15.07;34.08;93399.69;5026326;28;20101;-74
2023/03/27 07:49:18;;;;;;;6.63;3.70;;;;;;;15.14;33.60;93415.81;5026591;28;20025;-74
2023/03/27 07:51:44;;;;;;;9.32;4.10;;;;;;;15.32;33.46;93411.78;5026534;28;20080;-74
2023/03/27 07:54:12;;;;;;;8.73;4.75;;;;;;;15.46;33.35;93399.66;5057732;28;20041;-73
2023/03/27 07:56:38;;;;;;;7.93;4.90;;;;;;;15.47;33.47;93405.94;5025446;28;20098;-74
2023/03/27 07:59:04;;;;;;;5.60;3.42;;;;;;;15.55;33.41;93388.34;5025841;28;20179;-73
2023/03/27 08:01:29;;;;;;;4.10;2.75;;;;;;;15.54;33.33;93389.59;5026946;28;20108;-74
2023/03/27 08:03:55;;;;;;;6.65;3.10;;;;;;;15.70;33.07;93401.91;5026111;28;20018;-75
2023/03/27 08:06:21;;;;;;;7.03;2.75;;;;;;;15.79;32.97;93396.09;5026826;28;20025;-73
2023/03/27 08:08:46;;;;;;;4.90;2.50;;;;;;;15.70;33.25;93385.28;5025970;28;20037;-74
2023/03/27 08:11:12;;;;;;;4.57;2.85;;;;;;;15.82;33.54;93389.53;5025787;28;20029;-73
2023/03/27 08:13:38;;;;;;;5.88;2.67;;;;;;;15.85;33.54;93393.31;5025548;28;20082;-73
2023/03/27 08:16:13;;;;;;;5.22;2.95;;;;;;;15.82;33.71;93384.00;5025309;28;20042;-74
2023/03/27 08:18:39;;;;;;;4.32;2.83;;;;;;;15.71;34.04;93372.94;5027151;28;20064;-74
2023/03/27 08:21:07;;;;;;;6.05;2.85;;;;;;;15.62;34.37;93351.81;5025433;28;20095;-74
2023/03/27 08:23:33;;;;;;;6.13;3.50;;;;;;;15.74;34.61;93332.41;5024472;28;20026;-74
2023/03/27 08:26:02;;;;;;;4.72;3.40;;;;;;;15.72;34.23;93324.59;5026221;28;20228;-75
2023/03/27 08:28:30;;;;;;;9.10;3.63;;;;;;;15.58;34.05;93337.44;5025542;28;20644;-74
2023/03/27 08:30:56;;;;;;;5.47;2.72;;;;;;;15.20;35.06;93346.59;5024697;28;20506;-74
2023/03/27 08:33:22;;;;;;;4.95;3.20;;;;;;;15.22;34.61;93341.31;5025362;28;20026;-74
2023/03/27 08:35:50;;;;;;;5.68;3.00;;;;;;;15.09;34.83;93356.44;5026208;28;20487;-74
2023/03/27 08:38:16;;;;;;;4.70;3.08;;;;;;;15.17;34.83;93347.59;5025025;28;20149;-73
2023/03/27 08:40:47;;;;;;;5.28;3.00;;;;;;;15.14;34.63;93346.63;5024846;28;20152;-73
2023/03/27 08:43:18;;;;;;;5.55;2.70;;;;;;;15.18;34.85;93358.16;5025696;28;20112;-74
2023/03/27 08:45:50;;;;;;;6.68;3.22;;;;;;;15.32;34.94;93361.94;5025231;28;20029;-73
2023/03/27 08:48:22;;;;;;;6.95;3.60;;;;;;;15.38;35.47;93368.97;5026405;28;20540;-75
2023/03/27 08:50:53;;;;;;;6.07;2.97;;;;;;;15.58;34.80;93392.09;5024532;28;20029;-74
2023/03/27 08:53:40;;;;;;;5.90;3.20;;;;;;;15.79;34.57;93364.88;5007870;28;20538;-73
2023/03/27 08:56:12;;;;;;;7.90;3.63;;;;;;;16.06;33.97;93350.16;5022969;28;20045;-73
2023/03/27 08:58:37;;;;;;;6.72;3.70;;;;;;;16.37;33.49;93337.91;5025412;28;20112;-73
2023/03/27 09:01:14;;;;;;;8.60;3.80;;;;;;;16.70;33.34;93316.78;5025153;28;20052;-73
2023/03/27 09:03:48;;;;;;;8.43;3.85;;;;;;;17.01;32.66;93309.97;5024554;28;20027;-75
2023/03/27 09:06:38;;;;;;;6.35;3.28;;;;;;;17.29;32.07;93301.41;5026071;28;20036;-73
2023/03/27 09:09:28;;;;;;;7.53;3.58;;;;;;;17.51;31.84;93308.75;5024689;28;20575;-74
2023/03/27 09:12:02;;;;;;;5.15;3.28;;;;;;;17.53;31.50;93306.19;5024477;28;20217;-74
2023/03/27 09:14:38;;;;;;;8.10;3.33;;;;;;;17.68;31.26;93316.91;5025677;28;20056;-74
2023/03/27 09:17:29;;;;;;;9.60;3.80;;;;;;;17.82;30.99;93295.56;5024024;28;20506;-80
2023/03/27 09:20:07;;;;;;;14.63;4.72;;;;;;;18.00;29.88;93319.84;5016561;28;20111;-77
2023/03/27 09:22:45;;;;;;;6.22;2.42;;;;;;;17.86;28.14;93290.47;5023789;28;20544;-75
2023/03/27 09:25:27;;;;;;;7.53;2.55;;;;;;;17.43;29.54;93321.69;5022606;28;20035;-75
2023/03/27 09:27:53;;;;;;;5.35;2.50;;;;;;;17.07;29.54;93332.88;5024342;28;20026;-75
2023/03/27 09:30:28;;;;;;;6.97;2.33;;;;;;;16.72;30.12;93355.88;5024137;28;20032;-76
2023/03/27 09:32:57;;;;;;;6.00;2.03;;;;;;;16.36;31.44;93349.53;5024881;28;20053;-75
2023/03/27 09:35:22;;;;;;;8.73;1.90;;;;;;;15.61;33.98;93333.69;5024849;28;20025;-76
2023/03/27 09:37:53;;;;;;;4.93;1.60;;;;;;;15.44;34.23;93329.44;5024207;28;20108;-74
2023/03/27 09:40:29;;;;;;;4.28;2.20;;;;;;;15.55;34.67;93321.88;5024983;28;20187;-75
2023/03/27 09:42:55;;;;;;;5.35;2.13;;;;;;;15.56;34.61;93311.53;5022682;28;20034;-75
2023/03/27 09:45:21;;;;;;;4.55;1.98;;;;;;;15.45;34.98;93328.94;5025376;28;20026;-75
2023/03/27 09:47:57;;;;;;;3.15;1.73;;;;;;;15.11;35.76;93326.22;5024532;28;20035;-75
2023/03/27 09:50:33;;;;;;;3.15;1.60;;;;;;;15.22;35.58;93302.56;5023015;28;20083;-75
2023/03/27 09:53:08;;;;;;;5.00;2.20;;;;;;;15.14;35.99;93305.84;5023307;28;20030;-76
2023/03/27 09:55:33;;;;;;;4.38;2.13;;;;;;;15.25;35.81;93302.28;5023434;28;20021;-76
2023/03/27 09:58:14;;;;;;;5.10;1.90;;;;;;;15.26;35.43;93309.34;5025430;28;20026;-75
2023/03/27 10:00:39;;;;;;;10.30;5.35;;;;;;;15.27;35.72;93310.09;5022285;28;20025;-75
2023/03/27 10:03:16;;;;;;;5.30;2.58;;;;;;;15.32;35.86;93309.34;5023149;28;20032;-75
2023/03/27 10:05:42;;;;;;;4.75;2.22;;;;;;;15.23;35.98;93307.59;5023373;28;20092;-75
2023/03/27 10:08:23;;;;;;;5.40;2.60;;;;;;;15.25;36.39;93310.59;5024724;28;20088;-75
2023/03/27 10:10:56;;;;;;;2.85;1.77;;;;;;;15.42;36.38;93307.78;5029077;28;20087;-75
2023/03/27 10:13:25;;;;;;;4.32;2.40;;;;;;;15.31;37.29;93319.66;5027653;28;20087;-75
2023/03/27 10:15:57;;;;;;;4.70;1.92;;;;;;;15.25;37.35;93332.72;5028805;28;20033;-75
2023/03/27 10:18:33;;;;;;;6.22;2.45;;;;;;;14.91;38.72;93334.81;5026755;28;20420;-74
2023/03/27 10:21:01;;;;;;;4.90;1.95;;;;;;;14.97;39.07;93324.47;5026652;28;20931;-75
2023/03/27 10:23:48;;;;;;;5.22;2.50;;;;;;;15.08;39.65;93316.19;5027236;28;20030;-75
2023/03/27 10:26:18;;;;;;;3.95;2.13;;;;;;;14.93;39.95;93307.38;5027306;28;20510;-74
2023/03/27 10:28:50;;;;;;;3.15;2.28;;;;;;;14.90;40.13;93324.22;5028675;28;20052;-75
2023/03/27 10:31:32;;;;;;;5.05;2.22;;;;;;;14.93;39.97;93335.03;5027753;28;20078;-75
2023/03/27 10:34:03;;;;;;;7.25;2.78;;;;;;;14.95;40.22;93324.22;5028174;28;20025;-74
2023/03/27 10:36:36;;;;;;;8.73;4.20;;;;;;;15.11;40.91;93317.91;5028538;28;20095;-74
2023/03/27 10:39:08;;;;;;;4.13;2.30;;;;;;;15.34;40.77;93317.88;5026072;28;20040;-75
2023/03/27 10:41:35;;;;;;;6.90;3.05;;;;;;;15.45;40.41;93311.56;5027087;28;20033;-86
2023/03/27 10:44:17;;;;;;;6.68;3.55;;;;;;;15.55;40.41;93302.47;5026509;28;20025;-75
2023/03/27 10:46:43;;;;;;;4.32;2.85;;;;;;;15.66;40.44;93287.88;5026289;28;20033;-75
2023/03/27 10:49:35;;;;;;;4.25;2.75;;;;;;;15.80;40.16;93270.16;5028080;28;20040;-75
2023/03/27 10:52:19;;;;;;;5.93;2.83;;;;;;;15.83;39.83;93257.31;5026812;28;20498;-75
2023/03/27 10:54:53;;;;;;;5.10;2.17;;;;;;;15.96;40.13;93256.75;5026553;28;20033;-75
2023/03/27 10:57:23;;;;;;;4.38;2.50;;;;;;;16.09;40.20;93245.81;5025964;28;20518;-75
2023/03/27 11:00:17;;;;;;;4.68;2.13;;;;;;;16.04;41.03;93247.38;5027031;28;20071;-75
2023/03/27 11:02:56;;;;;;;3.40;2.17;;;;;;;16.42;40.45;93259.47;5028218;28;20036;-75
2023/03/27 11:05:30;;;;;;;3.03;2.10;;;;;;;16.49;40.21;93269.25;5026740;28;20030;-75
2023/03/27 11:08:02;;;;;;;3.90;1.80;;;;;;;16.62;39.65;93260.31;5027373;28;20515;-75
2023/03/27 11:10:56;;;;;;;4.20;2.50;;;;;;;16.57;40.46;93267.41;5025407;28;20032;-75
2023/03/27 11:13:29;;;;;;;4.45;2.10;;;;;;;16.77;40.34;93277.38;5021936;28;20041;-75
2023/03/27 11:16:03;;;;;;;5.15;2.25;;;;;;;16.81;40.61;93271.56;5026489;28;20454;-75
2023/03/27 11:18:33;;;;;;;5.07;2.45;;;;;;;16.68;40.49;93275.66;5025175;28;20025;-75
2023/03/27 11:21:11;;;;;;;3.88;2.50;;;;;;;16.50;41.15;93281.84;5025936;28;20057;-74
2023/03/27 11:23:37;;;;;;;5.53;2.60;;;;;;;15.99;42.26;93300.06;5025554;28;20018;-74
2023/03/27 11:26:05;;;;;;;3.95;1.98;;;;;;;15.83;42.73;93312.75;5026323;28;20216;-75
2023/03/27 11:28:42;;;;;;;4.43;2.17;;;;;;;15.62;43.23;93332.44;5027337;28;20080;-75
2023/03/27 11:31:13;;;;;;;3.22;2.05;;;;;;;15.46;43.84;93330.44;5024661;28;20034;-75
2023/03/27 11:33:51;;;;;;;4.95;2.15;;;;;;;15.29;44.17;93341.53;5026970;28;20030;-75
2023/03/27 11:36:31;;;;;;;5.18;2.42;;;;;;;15.02;44.84;93364.47;5025509;28;20029;-75
2023/03/27 11:39:22;;;;;;;5.15;2.00;;;;;;;15.02;44.62;93367.97;5024860;28;20033;-75
2023/03/27 11:41:59;;;;;;;6.10;2.78;;;;;;;15.00;45.04;93375.28;5027615;28;20060;-76
2023/03/27 11:44:25;;;;;;;3.90;2.13;;;;;;;14.78;44.80;93379.53;5024538;28;20060;-75